Time;durP1;ratioP1;P1;durP2;ratioP2;P2;SDS_P1;SDS_P2;PMS_P1;PMS_P2;Temp;Humidity;BMP_temperature;BMP_pressure;BME280_temperature;BME280_humidity;BME280_pressure;Samples;Min_cycle;Max_cycle;Signal;HPM_P1;HPM_P2
2023/04/10 00:00:22;;;;;;;56.10;36.60;;;;;;;4.62;87.16;101718.42;105803;1255;62200;-71
2023/04/10 00:02:49;;;;;;;54.10;35.70;;;;;;;4.59;87.23;101718.66;105665;1260;62261;-72
2023/04/10 00:05:16;;;;;;;57.60;37.10;;;;;;;4.56;87.35;101718.32;105620;1259;75528;-70
2023/04/10 00:07:43;;;;;;;52.70;35.00;;;;;;;4.54;87.32;101721.44;105571;1258;69470;-72
2023/04/10 00:10:10;;;;;;;56.90;36.20;;;;;;;4.50;87.30;101725.41;105657;1257;71264;-70
2023/04/10 00:12:36;;;;;;;57.50;36.30;;;;;;;4.46;87.29;101722.91;105523;1260;62065;-72
2023/04/10 00:15:03;;;;;;;59.10;37.70;;;;;;;4.42;87.47;101721.97;106766;1254;62131;-71
2023/04/10 00:17:30;;;;;;;55.70;36.40;;;;;;;4.38;87.46;101722.55;105708;1256;74899;-70
2023/04/10 00:19:58;;;;;;;57.90;35.80;;;;;;;4.35;87.75;101721.77;105646;1264;71119;-71
2023/04/10 00:22:25;;;;;;;55.00;35.40;;;;;;;4.32;87.69;101722.17;105755;1260;71145;-73
2023/04/10 00:24:52;;;;;;;56.40;35.60;;;;;;;4.28;87.79;101722.56;105430;1260;62169;-72
2023/04/10 00:27:19;;;;;;;59.40;36.80;;;;;;;4.25;87.85;101721.20;105456;1260;62391;-72
2023/04/10 00:29:45;;;;;;;58.90;37.30;;;;;;;4.21;87.89;101714.88;105449;1258;74755;-70
2023/04/10 00:32:12;;;;;;;55.80;36.30;;;;;;;4.18;88.16;101709.15;105614;1265;70944;-70
2023/04/10 00:34:39;;;;;;;56.50;37.00;;;;;;;4.15;88.41;101708.45;106767;1256;72825;-70
2023/04/10 00:37:06;;;;;;;57.30;36.50;;;;;;;4.12;88.79;101704.47;105936;1259;62482;-71
2023/04/10 00:39:33;;;;;;;58.50;36.80;;;;;;;4.10;89.56;101703.20;105677;1258;62164;-70
2023/04/10 00:42:01;;;;;;;60.40;36.50;;;;;;;4.08;89.94;101698.64;105474;1260;62056;-70
2023/04/10 00:44:27;;;;;;;56.80;35.20;;;;;;;4.06;89.96;101692.48;105601;1260;70193;-70
2023/04/10 00:46:54;;;;;;;52.50;34.50;;;;;;;4.05;90.12;101684.30;105679;1257;72816;-71
2023/04/10 00:49:21;;;;;;;54.50;35.00;;;;;;;4.03;90.03;101682.17;105626;1260;62075;-68
2023/04/10 00:51:47;;;;;;;56.00;34.50;;;;;;;4.02;90.50;101678.23;105572;1254;62642;-73
2023/04/10 00:54:14;;;;;;;57.50;36.10;;;;;;;4.01;91.03;101674.44;106741;1260;74297;-70
2023/04/10 00:56:43;;;;;;;56.40;34.50;;;;;;;4.00;91.39;101673.98;105632;1261;71466;-75
2023/04/10 00:59:10;;;;;;;54.50;33.80;;;;;;;3.99;91.00;101672.81;105600;1260;71995;-72
2023/04/10 01:01:36;;;;;;;53.00;33.30;;;;;;;3.98;91.21;101672.55;105583;1260;62174;-70
2023/04/10 01:04:04;;;;;;;48.00;31.60;;;;;;;3.97;91.06;101672.76;105487;1254;62445;-75
2023/04/10 01:06:50;;;;;;;48.60;32.00;;;;;;;3.97;90.84;101676.63;105492;1258;74740;-71
2023/04/10 01:09:28;;;;;;;49.70;31.70;;;;;;;3.97;90.86;101682.26;105798;1257;71431;-70
2023/04/10 01:12:24;;;;;;;51.80;32.90;;;;;;;3.95;90.57;101688.65;106904;1254;71546;-70
2023/04/10 01:15:03;;;;;;;48.80;31.30;;;;;;;3.95;90.44;101690.98;105603;1255;62149;-71
2023/04/10 01:17:37;;;;;;;49.60;32.20;;;;;;;3.95;90.40;101689.02;105614;1257;63268;-72
2023/04/10 01:20:25;;;;;;;51.10;32.00;;;;;;;3.95;90.22;101692.85;105711;1260;74424;-70
2023/04/10 01:23:28;;;;;;;49.00;32.70;;;;;;;3.95;90.13;101696.39;105612;1258;72514;-72
2023/04/10 01:26:04;;;;;;;49.40;30.80;;;;;;;3.94;89.87;101698.55;105637;1254;71669;-69
2023/04/10 01:29:00;;;;;;;47.80;31.40;;;;;;;3.90;89.35;101701.48;105551;1257;62664;-71
2023/04/10 01:31:43;;;;;;;49.50;30.90;;;;;;;3.85;89.14;101699.14;106895;1255;62058;-69
2023/04/10 01:34:20;;;;;;;49.80;31.60;;;;;;;3.82;89.27;101695.88;105437;1259;74527;-73
2023/04/10 01:37:00;;;;;;;47.00;29.80;;;;;;;3.78;89.14;101698.45;105619;1258;71343;-71
2023/04/10 01:39:30;;;;;;;48.30;30.70;;;;;;;3.73;89.15;101699.48;105584;1255;71491;-70
2023/04/10 01:41:58;;;;;;;50.50;31.40;;;;;;;3.70;89.15;101702.16;105817;1257;62078;-70
2023/04/10 01:44:31;;;;;;;50.00;32.20;;;;;;;3.66;89.10;101705.02;105831;1257;62148;-70
2023/04/10 01:46:59;;;;;;;52.40;31.90;;;;;;;3.62;89.31;101705.48;105756;1255;74380;-70
2023/04/10 01:49:29;;;;;;;47.60;31.40;;;;;;;3.58;89.23;101701.03;106843;1255;69699;-70
2023/04/10 01:51:58;;;;;;;50.10;31.80;;;;;;;3.54;89.19;101699.58;105566;1258;73026;-71
2023/04/10 01:54:27;;;;;;;52.30;32.40;;;;;;;3.49;89.49;101693.42;105673;1260;62110;-69
2023/04/10 01:56:55;;;;;;;51.20;32.30;;;;;;;3.45;89.53;101691.79;105592;1254;62060;-71
2023/04/10 01:59:22;;;;;;;50.50;31.30;;;;;;;3.42;89.71;101691.60;105740;1258;75720;-71
2023/04/10 02:01:55;;;;;;;49.10;32.50;;;;;;;3.38;89.90;101684.37;105558;1258;68755;-73
2023/04/10 02:04:22;;;;;;;47.60;32.10;;;;;;;3.36;90.02;101682.45;105583;1260;72217;-71
2023/04/10 02:07:15;;;;;;;47.90;31.40;;;;;;;3.33;90.14;101681.09;105918;1259;62061;-69
2023/04/10 02:09:54;;;;;;;50.40;32.20;;;;;;;3.28;90.14;101675.79;106267;1258;62051;-71
2023/04/10 02:12:27;;;;;;;52.70;32.30;;;;;;;3.26;90.73;101675.55;105681;1258;75418;-71
2023/04/10 02:14:58;;;;;;;52.40;32.30;;;;;;;3.24;90.30;101677.77;105717;1255;71008;-73
2023/04/10 02:17:29;;;;;;;51.80;32.70;;;;;;;3.21;90.79;101674.46;105645;1259;71565;-72
2023/04/10 02:19:57;;;;;;;54.30;32.80;;;;;;;3.21;90.61;101672.23;105647;1256;62065;-70
2023/04/10 02:22:24;;;;;;;50.00;31.60;;;;;;;3.19;90.53;101667.95;105646;1254;62419;-70
2023/04/10 02:24:52;;;;;;;53.50;31.90;;;;;;;3.18;90.84;101665.44;105973;1255;74452;-71
2023/04/10 02:27:35;;;;;;;51.40;32.50;;;;;;;3.17;90.82;101662.55;106164;1258;69758;-71
2023/04/10 02:30:04;;;;;;;50.00;31.30;;;;;;;3.15;90.68;101659.30;106511;1254;72447;-75
2023/04/10 02:32:32;;;;;;;49.30;32.40;;;;;;;3.14;90.38;101658.58;105499;1261;62166;-71
2023/04/10 02:35:01;;;;;;;49.10;31.90;;;;;;;3.12;90.85;101657.79;105673;1258;62498;-69
2023/04/10 02:37:28;;;;;;;49.10;31.30;;;;;;;3.11;91.09;101654.53;105726;1259;75194;-70
2023/04/10 02:39:55;;;;;;;49.90;31.20;;;;;;;3.10;90.80;101652.00;105802;1260;71408;-70
2023/04/10 02:42:22;;;;;;;51.40;31.10;;;;;;;3.08;90.86;101645.80;105717;1257;71112;-70
2023/04/10 02:44:48;;;;;;;48.70;30.50;;;;;;;3.06;91.06;101643.70;106531;1257;62164;-73
2023/04/10 02:47:15;;;;;;;48.20;30.80;;;;;;;3.05;91.08;101643.09;106531;1254;62071;-70
2023/04/10 02:49:43;;;;;;;50.30;31.40;;;;;;;3.04;91.61;101644.54;105648;1260;76010;-72
2023/04/10 02:52:09;;;;;;;47.10;30.30;;;;;;;3.03;91.55;101646.48;105791;1257;71667;-74
2023/04/10 02:54:36;;;;;;;50.80;31.90;;;;;;;3.03;91.64;101646.31;105571;1257;62449;-72
2023/04/10 02:57:03;;;;;;;49.10;30.50;;;;;;;3.03;91.62;101645.44;105644;1257;62613;-73
2023/04/10 02:59:30;;;;;;;48.40;30.30;;;;;;;3.04;91.69;101642.61;105720;1257;62140;-71
2023/04/10 03:01:57;;;;;;;46.10;30.40;;;;;;;3.04;91.73;101641.22;105735;1257;74055;-71
2023/04/10 03:04:24;;;;;;;47.60;30.40;;;;;;;3.04;91.49;101640.49;107185;1254;69227;-70
2023/04/10 03:06:50;;;;;;;47.60;31.00;;;;;;;3.03;91.23;101635.66;106003;1260;71480;-70
2023/04/10 03:09:17;;;;;;;46.20;29.40;;;;;;;3.03;91.23;101637.61;105652;1256;62641;-70
2023/04/10 03:11:44;;;;;;;43.30;29.20;;;;;;;3.03;91.20;101635.87;105684;1258;62039;-70
2023/04/10 03:14:10;;;;;;;44.20;28.30;;;;;;;3.02;91.16;101632.60;105802;1254;75831;-70
2023/04/10 03:16:37;;;;;;;46.20;29.80;;;;;;;3.00;90.96;101632.70;105779;1254;70044;-71
2023/04/10 03:19:04;;;;;;;46.90;29.70;;;;;;;2.98;91.18;101628.84;105691;1260;70781;-71
2023/04/10 03:21:31;;;;;;;45.10;29.70;;;;;;;2.95;90.83;101625.20;106519;1254;62109;-72
2023/04/10 03:23:57;;;;;;;45.10;29.10;;;;;;;2.92;90.92;101625.95;106014;1256;62066;-70
2023/04/10 03:26:24;;;;;;;46.60;28.80;;;;;;;2.89;91.06;101627.55;106248;1254;74507;-71
2023/04/10 03:28:51;;;;;;;45.10;29.00;;;;;;;2.87;91.09;101624.35;105736;1258;62242;-70
2023/04/10 03:31:17;;;;;;;46.80;29.40;;;;;;;2.84;91.11;101621.39;105645;1257;72185;-70
2023/04/10 03:33:45;;;;;;;44.90;29.20;;;;;;;2.82;90.83;101619.41;105768;1254;62621;-72
2023/04/10 03:36:15;;;;;;;44.70;28.20;;;;;;;2.80;90.96;101616.02;105657;1257;62657;-71
2023/04/10 03:38:42;;;;;;;48.00;29.30;;;;;;;2.80;91.25;101614.34;106388;1254;76175;-70
2023/04/10 03:41:08;;;;;;;49.20;29.90;;;;;;;2.79;91.03;101609.31;105692;1260;69736;-69
2023/04/10 03:43:35;;;;;;;47.50;29.10;;;;;;;2.79;91.44;101604.44;106414;1254;72263;-70
2023/04/10 03:46:02;;;;;;;45.40;28.80;;;;;;;2.78;91.27;101605.52;105832;1258;62103;-70
2023/04/10 03:48:29;;;;;;;48.00;29.20;;;;;;;2.77;91.39;101605.61;105628;1254;62167;-70
2023/04/10 03:50:56;;;;;;;46.90;28.60;;;;;;;2.76;91.30;101607.95;105522;1258;74141;-69
2023/04/10 03:53:23;;;;;;;50.80;30.10;;;;;;;2.74;91.15;101603.36;105820;1255;62326;-70
2023/04/10 03:55:51;;;;;;;49.70;30.70;;;;;;;2.73;90.91;101607.13;106100;1260;71545;-69
2023/04/10 03:58:18;;;;;;;50.90;30.60;;;;;;;2.71;91.52;101605.84;105573;1254;62521;-70
2023/04/10 04:00:45;;;;;;;48.40;30.70;;;;;;;2.69;91.34;101603.38;105674;1257;62034;-72
2023/04/10 04:03:12;;;;;;;51.90;30.80;;;;;;;2.66;91.54;101608.29;105979;1258;75592;-69
2023/04/10 04:05:39;;;;;;;55.10;31.70;;;;;;;2.65;91.76;101605.85;106150;1254;71273;-71
2023/04/10 04:08:05;;;;;;;52.80;31.30;;;;;;;2.67;92.14;101605.59;105718;1255;71731;-71
2023/04/10 04:10:32;;;;;;;55.50;32.50;;;;;;;2.70;92.73;101608.16;105848;1256;62098;-70
2023/04/10 04:12:59;;;;;;;56.00;31.70;;;;;;;2.73;92.67;101607.47;106158;1254;62601;-71
2023/04/10 04:15:26;;;;;;;53.40;32.90;;;;;;;2.75;92.67;101608.05;105658;1254;75324;-69
2023/04/10 04:17:52;;;;;;;54.70;31.50;;;;;;;2.76;92.78;101605.65;105565;1260;69639;-70
2023/04/10 04:20:19;;;;;;;50.70;30.70;;;;;;;2.77;92.49;101603.63;105684;1257;71546;-70
2023/04/10 04:22:46;;;;;;;48.20;29.50;;;;;;;2.79;92.27;101600.73;106520;1255;61911;-72
2023/04/10 04:25:13;;;;;;;49.10;29.80;;;;;;;2.81;92.50;101601.67;105613;1260;63241;-70
2023/04/10 04:27:40;;;;;;;49.70;29.70;;;;;;;2.82;92.32;101598.80;105545;1261;75481;-70
2023/04/10 04:30:07;;;;;;;50.20;30.00;;;;;;;2.83;92.52;101600.63;105554;1258;69047;-70
2023/04/10 04:32:34;;;;;;;49.00;29.90;;;;;;;2.84;92.36;101602.80;106303;1254;72552;-71
2023/04/10 04:35:00;;;;;;;44.10;27.70;;;;;;;2.85;91.87;101601.58;105595;1257;62168;-70
2023/04/10 04:37:27;;;;;;;43.90;26.60;;;;;;;2.85;92.01;101604.52;105511;1260;62224;-69
2023/04/10 04:39:53;;;;;;;42.90;25.80;;;;;;;2.85;92.10;101602.30;105646;1258;62612;-70
2023/04/10 04:42:20;;;;;;;40.80;25.60;;;;;;;2.84;91.91;101599.20;106158;1254;62461;-70
2023/04/10 04:44:48;;;;;;;39.50;24.50;;;;;;;2.83;91.97;101602.90;105644;1256;71245;-70
2023/04/10 04:47:15;;;;;;;40.00;24.60;;;;;;;2.84;92.19;101604.97;105648;1259;62056;-73
2023/04/10 04:49:42;;;;;;;39.70;25.30;;;;;;;2.86;92.11;101602.36;105572;1257;62538;-69
2023/04/10 04:52:09;;;;;;;39.50;24.10;;;;;;;2.89;91.87;101602.06;106536;1254;75513;-70
2023/04/10 04:54:36;;;;;;;37.60;24.40;;;;;;;2.91;91.62;101598.61;105660;1254;70001;-70
2023/04/10 04:57:03;;;;;;;37.80;24.20;;;;;;;2.94;91.80;101600.63;105596;1256;71558;-69
2023/04/10 04:59:29;;;;;;;37.90;23.70;;;;;;;2.99;91.81;101601.73;105775;1256;61975;-70
2023/04/10 05:01:56;;;;;;;37.90;24.20;;;;;;;3.03;91.54;101601.80;106600;1254;62081;-70
2023/04/10 05:04:23;;;;;;;36.20;22.80;;;;;;;3.07;91.48;101603.09;105459;1254;74215;-69
2023/04/10 05:06:50;;;;;;;33.90;22.30;;;;;;;3.10;91.59;101601.65;105695;1255;71161;-70
2023/04/10 05:09:16;;;;;;;37.20;22.40;;;;;;;3.14;91.13;101599.42;105577;1254;62013;-69
2023/04/10 05:11:43;;;;;;;35.00;22.50;;;;;;;3.19;91.20;101597.85;106463;1257;62151;-68
2023/04/10 05:14:10;;;;;;;34.00;22.50;;;;;;;3.24;90.89;101599.12;105685;1254;63259;-70
2023/04/10 05:16:36;;;;;;;34.20;22.40;;;;;;;3.31;91.39;101600.27;105595;1259;62205;-70
2023/04/10 05:19:03;;;;;;;35.60;23.80;;;;;;;3.39;91.03;101604.95;105591;1255;69658;-70
2023/04/10 05:21:30;;;;;;;37.20;23.00;;;;;;;3.47;91.26;101607.30;106371;1258;62056;-71
2023/04/10 05:23:57;;;;;;;37.60;22.70;;;;;;;3.57;91.46;101608.38;105717;1257;62045;-70
2023/04/10 05:26:23;;;;;;;32.90;21.60;;;;;;;3.68;91.10;101608.84;105721;1256;62456;-69
2023/04/10 05:28:50;;;;;;;32.50;21.50;;;;;;;3.79;90.99;101611.95;106329;1256;62067;-69
2023/04/10 05:31:16;;;;;;;33.60;21.70;;;;;;;3.88;90.74;101605.52;105811;1254;71242;-70
2023/04/10 05:33:43;;;;;;;32.70;22.20;;;;;;;3.98;90.20;101597.13;105616;1253;62113;-72
2023/04/10 05:36:10;;;;;;;31.40;20.40;;;;;;;4.08;90.24;101596.55;105447;1256;266612;-70
2023/04/10 05:38:36;;;;;;;31.80;20.80;;;;;;;4.18;90.03;101598.48;105523;1254;62057;-70
2023/04/10 05:41:03;;;;;;;31.00;21.40;;;;;;;4.28;89.85;101597.92;106625;1257;62192;-71
2023/04/10 05:43:29;;;;;;;31.90;20.40;;;;;;;4.39;89.60;101596.23;105647;1255;62048;-70
2023/04/10 05:45:56;;;;;;;30.40;21.30;;;;;;;4.50;89.36;101599.49;105534;1258;72314;-72
2023/04/10 05:48:24;;;;;;;32.00;20.80;;;;;;;4.61;88.99;101603.95;106114;1256;62046;-69
2023/04/10 05:50:51;;;;;;;33.20;21.10;;;;;;;4.72;88.90;101604.98;105800;1257;62051;-73
2023/04/10 05:53:19;;;;;;;31.70;20.60;;;;;;;4.88;88.88;101606.48;105501;1261;74792;-69
2023/04/10 05:55:55;;;;;;;30.80;21.30;;;;;;;5.05;88.42;101608.71;105759;1254;69703;-68
2023/04/10 05:58:21;;;;;;;30.20;20.20;;;;;;;5.20;88.17;101612.77;105658;1254;71146;-72
2023/04/10 06:00:48;;;;;;;29.80;21.00;;;;;;;5.34;87.64;101612.63;106216;1257;62034;-70
2023/04/10 06:03:14;;;;;;;31.40;21.40;;;;;;;5.46;87.43;101610.95;105482;1257;62281;-68
2023/04/10 06:05:41;;;;;;;31.60;21.10;;;;;;;5.61;87.23;101612.95;105640;1255;75209;-72
2023/04/10 06:08:08;;;;;;;31.80;20.60;;;;;;;5.74;86.98;101611.48;106330;1254;70978;-70
2023/04/10 06:10:35;;;;;;;29.10;19.60;;;;;;;5.84;86.59;101612.77;105597;1254;63143;-69
2023/04/10 06:13:01;;;;;;;30.70;21.00;;;;;;;5.94;86.51;101615.13;105589;1256;62079;-73
2023/04/10 06:15:28;;;;;;;29.80;19.20;;;;;;;6.06;86.18;101609.45;105603;1259;62030;-70
2023/04/10 06:17:55;;;;;;;26.70;19.50;;;;;;;6.13;85.68;101605.35;106392;1255;75564;-67
2023/04/10 06:20:21;;;;;;;29.50;20.00;;;;;;;6.21;85.59;101605.46;105627;1256;70094;-69
2023/04/10 06:22:48;;;;;;;30.20;19.80;;;;;;;6.28;85.67;101601.02;105667;1255;70183;-70
2023/04/10 06:25:15;;;;;;;28.20;19.60;;;;;;;6.36;85.70;101600.71;105793;1256;62335;-70
2023/04/10 06:27:41;;;;;;;28.80;19.20;;;;;;;6.43;85.18;101593.45;106084;1258;62036;-71
2023/04/10 06:30:08;;;;;;;26.80;18.70;;;;;;;6.49;85.17;101590.64;105413;1255;76038;-70
2023/04/10 06:32:35;;;;;;;26.20;19.20;;;;;;;6.57;85.12;101589.04;105632;1258;70016;-70
2023/04/10 06:35:01;;;;;;;27.80;19.10;;;;;;;6.65;84.79;101583.21;106338;1256;72568;-69
2023/04/10 06:37:31;;;;;;;27.20;19.00;;;;;;;6.73;84.89;101581.71;105591;1261;62060;-69
2023/04/10 06:40:10;;;;;;;26.50;18.60;;;;;;;6.83;84.94;101580.02;105728;1254;62158;-72
2023/04/10 06:42:37;;;;;;;26.80;18.90;;;;;;;6.93;84.84;101576.98;105396;1254;75433;-73
2023/04/10 06:45:04;;;;;;;27.50;18.70;;;;;;;7.02;84.72;101577.66;105950;1256;70200;-70
2023/04/10 06:47:31;;;;;;;28.00;19.30;;;;;;;7.10;84.67;101572.56;106154;1254;70791;-70
2023/04/10 06:49:58;;;;;;;26.90;19.30;;;;;;;7.19;85.00;101571.85;105683;1254;62547;-68
2023/04/10 06:52:24;;;;;;;26.50;19.10;;;;;;;7.27;85.01;101574.81;106499;1254;62178;-70
2023/04/10 06:54:51;;;;;;;27.70;18.20;;;;;;;7.41;84.84;101575.27;105803;1254;76179;-69
2023/04/10 06:57:17;;;;;;;24.10;17.40;;;;;;;7.54;83.75;101574.66;105652;1259;70269;-72
2023/04/10 06:59:44;;;;;;;23.80;16.30;;;;;;;7.69;83.07;101570.50;105546;1258;62171;-71
2023/04/10 07:02:11;;;;;;;22.10;17.20;;;;;;;7.86;82.46;101570.08;105608;1256;62043;-69
2023/04/10 07:04:37;;;;;;;22.50;17.10;;;;;;;8.04;82.33;101571.14;106118;1257;60822;-68
2023/04/10 07:07:08;;;;;;;21.90;16.50;;;;;;;8.22;81.05;101574.62;105527;1255;62127;-70
2023/04/10 07:09:35;;;;;;;22.80;17.30;;;;;;;8.38;80.53;101567.87;106627;1254;69753;-69
2023/04/10 07:12:01;;;;;;;25.10;17.60;;;;;;;8.56;80.07;101566.66;105837;1255;71537;-70
2023/04/10 07:14:28;;;;;;;23.40;17.60;;;;;;;8.74;79.71;101564.48;105674;1255;62496;-69
2023/04/10 07:16:54;;;;;;;22.50;16.20;;;;;;;8.91;79.42;101559.17;105652;1255;62214;-71
2023/04/10 07:19:21;;;;;;;21.30;16.40;;;;;;;9.07;79.28;101557.75;105953;1254;74347;-69
2023/04/10 07:21:49;;;;;;;23.20;17.20;;;;;;;9.22;78.95;101556.49;106255;1257;70689;-69
2023/04/10 07:24:16;;;;;;;20.70;15.60;;;;;;;9.37;77.92;101551.70;105598;1258;72692;-73
2023/04/10 07:26:43;;;;;;;21.50;15.80;;;;;;;9.51;77.04;101547.77;105628;1254;62042;-70
2023/04/10 07:29:11;;;;;;;19.20;15.00;;;;;;;9.64;75.90;101543.78;105865;1255;63491;-68
2023/04/10 07:31:37;;;;;;;19.70;14.80;;;;;;;9.78;75.40;101534.67;106443;1258;75220;-71
2023/04/10 07:34:05;;;;;;;19.40;15.50;;;;;;;9.95;75.70;101533.19;105754;1254;71183;-70
2023/04/10 07:36:32;;;;;;;18.10;14.20;;;;;;;10.13;74.94;101533.00;105752;1255;72654;-68
2023/04/10 07:38:58;;;;;;;18.20;14.10;;;;;;;10.32;74.09;101528.68;106616;1254;61939;-69
2023/04/10 07:41:25;;;;;;;18.60;14.30;;;;;;;10.53;72.76;101529.65;105618;1254;62121;-69
2023/04/10 07:43:51;;;;;;;18.90;14.50;;;;;;;10.73;71.71;101526.98;105550;1254;62173;-68
2023/04/10 07:46:18;;;;;;;17.50;13.20;;;;;;;10.91;71.83;101529.02;105489;1254;62186;-69
2023/04/10 07:48:46;;;;;;;17.30;13.50;;;;;;;11.09;71.20;101520.04;105568;1257;71468;-71
2023/04/10 07:51:13;;;;;;;16.40;13.40;;;;;;;11.26;70.07;101521.65;106518;1255;62091;-72
2023/04/10 07:53:39;;;;;;;16.30;12.80;;;;;;;11.42;68.92;101522.71;105785;1256;62234;-69
2023/04/10 07:56:07;;;;;;;15.40;12.60;;;;;;;11.58;68.54;101522.80;106077;1254;62074;-70
2023/04/10 07:58:33;;;;;;;16.20;12.60;;;;;;;11.76;68.40;101518.54;105931;1257;71050;-68
2023/04/10 08:01:00;;;;;;;14.90;11.80;;;;;;;11.98;68.10;101520.17;105593;1257;72301;-67
2023/04/10 08:03:27;;;;;;;15.70;12.20;;;;;;;12.21;66.77;101518.45;105763;1255;62611;-68
2023/04/10 08:05:54;;;;;;;14.50;11.60;;;;;;;12.37;64.87;101511.89;105560;1255;62046;-69
2023/04/10 08:08:20;;;;;;;13.30;10.90;;;;;;;12.54;63.57;101510.58;106316;1254;74323;-70
2023/04/10 08:10:47;;;;;;;12.70;10.10;;;;;;;12.69;61.01;101512.89;105560;1258;62055;-70
2023/04/10 08:13:14;;;;;;;11.70;9.80;;;;;;;12.79;59.29;101513.34;105579;1255;72424;-71
2023/04/10 08:15:41;;;;;;;11.90;10.30;;;;;;;12.94;58.64;101511.31;105532;1258;61992;-68
2023/04/10 08:18:07;;;;;;;11.60;9.20;;;;;;;13.11;57.88;101507.67;106400;1255;61972;-69
2023/04/10 08:20:35;;;;;;;13.00;10.70;;;;;;;13.26;56.71;101502.79;105725;1254;62080;-68
2023/04/10 08:23:03;;;;;;;11.90;10.00;;;;;;;13.42;56.54;101503.71;105441;1255;70930;-71
2023/04/10 08:25:45;;;;;;;11.50;9.30;;;;;;;13.63;57.37;101500.07;105928;1254;72462;-67
2023/04/10 08:28:12;;;;;;;11.70;9.20;;;;;;;13.77;54.81;101496.86;105835;1254;62186;-67
2023/04/10 08:30:38;;;;;;;11.90;9.30;;;;;;;13.84;54.07;101488.75;105403;1260;62595;-69
2023/04/10 08:33:05;;;;;;;11.20;9.30;;;;;;;13.94;53.76;101487.64;105596;1259;75468;-68
2023/04/10 08:35:31;;;;;;;11.30;9.10;;;;;;;14.04;53.55;101485.45;105530;1256;70019;-69
2023/04/10 08:37:58;;;;;;;11.20;9.30;;;;;;;14.15;52.92;101484.65;106381;1255;62165;-68
2023/04/10 08:40:39;;;;;;;11.20;9.90;;;;;;;14.21;52.14;101481.70;105626;1254;62031;-68
2023/04/10 08:43:05;;;;;;;11.70;9.60;;;;;;;14.27;51.59;101483.02;105578;1255;62117;-70
2023/04/10 08:45:32;;;;;;;11.50;9.40;;;;;;;14.33;51.67;101480.76;105683;1256;62166;-66
2023/04/10 08:48:01;;;;;;;10.60;9.30;;;;;;;14.43;51.65;101476.44;106322;1254;70139;-68
2023/04/10 08:50:32;;;;;;;10.40;8.80;;;;;;;14.58;51.73;101476.25;105526;1256;72944;-68
2023/04/10 08:53:07;;;;;;;10.30;8.50;;;;;;;14.72;50.90;101473.31;106072;1254;61968;-66
2023/04/10 08:55:34;;;;;;;10.10;8.70;;;;;;;14.86;49.95;101473.50;105801;1255;62337;-71
2023/04/10 08:58:01;;;;;;;9.70;7.90;;;;;;;14.92;47.89;101470.79;105706;1254;74280;-70
2023/04/10 09:00:30;;;;;;;9.40;8.20;;;;;;;14.99;47.99;101467.84;105735;1258;69819;-69
2023/04/10 09:02:57;;;;;;;9.10;8.10;;;;;;;15.03;46.77;101467.27;105581;1254;72798;-71
2023/04/10 09:05:26;;;;;;;8.70;7.50;;;;;;;15.02;46.97;101461.05;105551;1256;62137;-68
2023/04/10 09:07:52;;;;;;;10.80;8.50;;;;;;;15.06;47.73;101457.30;106499;1255;62152;-68
2023/04/10 09:10:19;;;;;;;9.70;8.30;;;;;;;15.18;48.41;101453.94;105642;1255;62332;-67
2023/04/10 09:12:47;;;;;;;10.50;8.80;;;;;;;15.33;47.42;101454.28;106287;1257;70965;-69
2023/04/10 09:15:14;;;;;;;9.70;8.20;;;;;;;15.37;46.12;101451.13;105550;1256;71217;-70
2023/04/10 09:18:07;;;;;;;9.00;7.90;;;;;;;15.40;46.31;101449.14;105640;1255;62175;-67
2023/04/10 09:20:33;;;;;;;10.30;8.40;;;;;;;15.50;46.36;101441.77;105482;1256;62170;-68
2023/04/10 09:23:01;;;;;;;9.70;8.00;;;;;;;15.62;45.71;101442.67;105722;1254;62511;-69
2023/04/10 09:25:29;;;;;;;10.20;8.50;;;;;;;15.71;45.58;101440.45;106535;1254;70035;-68
2023/04/10 09:28:05;;;;;;;10.90;8.70;;;;;;;15.77;45.05;101434.30;105563;1257;71913;-71
2023/04/10 09:30:36;;;;;;;9.50;8.10;;;;;;;15.81;45.32;101428.91;106424;1254;61997;-71
2023/04/10 09:33:20;;;;;;;11.40;9.30;;;;;;;15.85;44.98;101423.64;105574;1258;62280;-71
2023/04/10 09:35:47;;;;;;;10.30;8.50;;;;;;;15.95;44.90;101416.80;105444;1257;75160;-69
2023/04/10 09:38:18;;;;;;;10.60;8.70;;;;;;;15.98;44.01;101405.43;105500;1255;70853;-71
2023/04/10 09:40:46;;;;;;;9.10;7.80;;;;;;;16.14;44.86;101405.19;105174;1257;72734;-71
2023/04/10 09:43:25;;;;;;;9.70;7.80;;;;;;;16.16;42.99;101399.80;106465;1255;62042;-69
2023/04/10 09:45:56;;;;;;;9.50;8.20;;;;;;;16.16;43.13;101392.80;105571;1254;61991;-69
2023/04/10 09:48:25;;;;;;;10.70;8.70;;;;;;;16.08;43.08;101390.59;106328;1257;75666;-73
2023/04/10 09:50:52;;;;;;;7.90;6.90;;;;;;;16.08;43.36;101382.08;105468;1254;70078;-68
2023/04/10 09:53:19;;;;;;;10.20;8.00;;;;;;;16.03;43.22;101373.88;105442;1255;62101;-69
2023/04/10 09:55:48;;;;;;;9.10;7.40;;;;;;;16.08;43.12;101375.29;105508;1255;62137;-69
2023/04/10 09:58:15;;;;;;;8.60;7.30;;;;;;;16.08;42.45;101367.58;106029;1254;63602;-67
2023/04/10 10:00:47;;;;;;;8.40;7.40;;;;;;;16.18;43.60;101359.14;106004;1255;75484;-70
2023/04/10 10:03:16;;;;;;;10.00;7.30;;;;;;;16.37;43.56;101348.86;105538;1258;70387;-71
2023/04/10 10:05:45;;;;;;;7.80;7.00;;;;;;;16.48;42.75;101341.40;105973;1256;71288;-68
2023/04/10 10:08:13;;;;;;;8.60;7.20;;;;;;;16.57;41.66;101336.91;105996;1254;61985;-70
2023/04/10 10:10:45;;;;;;;8.40;7.00;;;;;;;16.60;41.08;101336.13;105424;1259;61991;-70
2023/04/10 10:13:30;;;;;;;8.30;7.00;;;;;;;16.64;40.21;101339.99;105374;1256;75667;-70
2023/04/10 10:16:14;;;;;;;8.20;6.80;;;;;;;16.69;39.91;101335.23;105547;1255;71538;-69
2023/04/10 10:18:58;;;;;;;8.20;6.30;;;;;;;16.72;39.75;101332.11;106555;1255;72836;-69
2023/04/10 10:21:26;;;;;;;7.90;6.90;;;;;;;16.78;39.04;101328.25;105533;1257;62048;-70
2023/04/10 10:23:57;;;;;;;8.00;6.80;;;;;;;16.83;38.95;101322.60;105633;1255;62722;-69
2023/04/10 10:26:24;;;;;;;8.80;7.10;;;;;;;16.97;39.10;101317.17;106522;1254;75824;-75
2023/04/10 10:28:52;;;;;;;9.40;6.80;;;;;;;16.97;39.24;101315.76;105589;1256;71698;-74
2023/04/10 10:31:22;;;;;;;10.20;7.30;;;;;;;16.99;39.54;101309.10;105268;1256;72403;-74
2023/04/10 10:33:51;;;;;;;8.80;6.90;;;;;;;16.99;39.43;101305.75;105528;1256;63811;-75
2023/04/10 10:36:19;;;;;;;8.80;7.10;;;;;;;17.10;40.25;101298.94;106287;1255;62487;-74
2023/04/10 10:39:32;;;;;;;7.50;6.70;;;;;;;17.21;39.62;101293.55;105560;1257;74888;-73
2023/04/10 10:42:11;;;;;;;7.20;6.20;;;;;;;17.16;37.92;101293.42;105229;1264;71071;-73
2023/04/10 10:44:48;;;;;;;6.30;5.40;;;;;;;17.17;38.08;101290.25;106401;1254;71545;-74
2023/04/10 10:47:26;;;;;;;6.50;5.40;;;;;;;17.24;38.22;101282.66;105469;1255;62121;-76
2023/04/10 10:49:58;;;;;;;6.70;5.70;;;;;;;17.37;38.41;101272.28;105404;1258;62036;-73
2023/04/10 10:52:42;;;;;;;7.40;5.50;;;;;;;17.48;37.91;101265.35;105556;1256;74207;-73
2023/04/10 10:55:20;;;;;;;7.10;5.80;;;;;;;17.57;38.12;101261.17;106439;1255;72009;-74
2023/04/10 10:57:50;;;;;;;6.40;5.20;;;;;;;17.67;37.75;101261.00;105372;1256;71780;-74
2023/04/10 11:00:18;;;;;;;6.50;5.60;;;;;;;17.77;37.41;101250.96;106240;1255;62138;-73
2023/04/10 11:03:05;;;;;;;6.60;5.20;;;;;;;17.85;37.44;101242.92;105610;1254;62202;-75
2023/04/10 11:05:51;;;;;;;6.80;5.70;;;;;;;17.90;37.60;101236.96;105518;1257;75580;-72
2023/04/10 11:08:39;;;;;;;6.20;5.30;;;;;;;17.92;36.89;101235.05;105614;1255;69968;-73
2023/04/10 11:11:08;;;;;;;6.90;5.50;;;;;;;17.93;36.91;101228.70;105597;1255;71540;-73
2023/04/10 11:13:37;;;;;;;5.90;4.90;;;;;;;17.93;36.59;101228.16;105768;1257;62046;-73
2023/04/10 11:16:06;;;;;;;6.10;5.30;;;;;;;17.94;36.42;101218.54;106135;1254;62030;-71
2023/04/10 11:18:45;;;;;;;5.70;4.70;;;;;;;17.95;36.78;101209.54;105541;1256;75428;-73